»·PEaware :: SWA6860 KSFO-KSNA

SWA6860 :: KSFO-KSNA

FLIGHT INFORMATION

Flight Status: Arrived
Operator:
Southwest Airlines
More flights by this operator :: More flights under this callsign
Pilot: Cody B. (17747)
Aircraft: BOEING 737-800
(B738)
More flights by this aircraft type
Origin: KSFO San Francisco Intl
United States
Destination: KSNA John Wayne-Orange Co
United States
More flights between these airports :: More routes between these airports
Route: +OFFSH1 MCKEY TILLT TILLT2
File this flight plan on PilotEdge
Remarks:
Altitude:
(Current/Filed)
33,000ft
Speed:
(Current/Filed)
456kts
Departed: 30-Sep-18 05:33 PM
Arrived: 30-Sep-18 06:47 PM
Distance/Time
Traveled:
323nm/1:14
Distance/Time
To Go:
Arrived

Flight Plot

Page will automatically refresh every two minutes.

Flight plan parsing failed; only flown route is shown


Map Options




Map Legend


Flown Route
Filed Route
Departure Airport
Arrival Airport
Navaid (VOR, NDB)
Fix

Horizontal Profiles

Position Reports

Time Latitude Longitude Heading Altitude Ground
Speed
30-Sep-18 17:17 37.612830 -122.383166 296 21ft 0kts
30-Sep-18 17:18 37.612830 -122.383166 296 21ft 0kts
30-Sep-18 17:19 37.612830 -122.383166 296 21ft 0kts
30-Sep-18 17:20 37.612830 -122.383166 296 21ft 0kts
30-Sep-18 17:21 37.612830 -122.383166 296 21ft 0kts
30-Sep-18 17:22 37.612830 -122.383166 296 21ft 0kts
30-Sep-18 17:23 37.612830 -122.383166 296 21ft 0kts
30-Sep-18 17:24 37.612830 -122.383166 296 21ft 0kts
30-Sep-18 17:25 37.612830 -122.383166 296 21ft 0kts
30-Sep-18 17:26 37.612738 -122.382871 279 21ft 2kts
30-Sep-18 17:27 37.612887 -122.382175 228 21ft 2kts
30-Sep-18 17:28 37.613115 -122.381962 206 21ft 0kts
30-Sep-18 17:29 37.613115 -122.381962 206 21ft 0kts
30-Sep-18 17:30 37.612594 -122.382302 207 21ft 9kts
30-Sep-18 17:31 37.609418 -122.384650 209 21ft 12kts
30-Sep-18 17:32 37.608464 -122.383876 116 21ft 0kts
30-Sep-18 17:33 37.608463 -122.383874 116 21ft 0kts
30-Sep-18 17:34 37.609235 -122.382018 26 21ft 18kts
30-Sep-18 17:35 37.631905 -122.366276 31 451ft 162kts
30-Sep-18 17:36 37.677046 -122.363213 2 2615ft 203kts
30-Sep-18 17:37 37.744737 -122.353895 4 5064ft 273kts
30-Sep-18 17:38 37.819472 -122.365243 326 8037ft 303kts
30-Sep-18 17:39 37.864119 -122.448678 260 11000ft 318kts
30-Sep-18 17:40 37.811134 -122.530880 210 11383ft 315kts
30-Sep-18 17:41 37.737211 -122.584912 209 13346ft 318kts
30-Sep-18 17:42 37.660810 -122.640638 209 15884ft 325kts
30-Sep-18 17:43 37.582381 -122.694881 200 18604ft 333kts
30-Sep-18 17:44 37.491068 -122.710194 172 21084ft 347kts
30-Sep-18 17:45 37.395834 -122.685531 171 23245ft 359kts
30-Sep-18 17:46 37.317950 -122.665015 172 24817ft 367kts
30-Sep-18 17:47 37.224525 -122.640446 172 26497ft 377kts
30-Sep-18 17:48 37.120978 -122.613319 173 28127ft 388kts
30-Sep-18 17:49 37.014506 -122.585439 173 29757ft 395kts
30-Sep-18 17:50 36.907588 -122.557543 174 31586ft 392kts
30-Sep-18 17:51 36.802592 -122.530254 174 32960ft 395kts
30-Sep-18 17:52 36.691100 -122.501527 174 32977ft 425kts
30-Sep-18 17:53 36.573946 -122.471252 174 32968ft 431kts
30-Sep-18 17:54 36.457547 -122.435198 162 32978ft 441kts
30-Sep-18 17:55 36.365654 -122.349922 137 32977ft 464kts
30-Sep-18 17:56 36.301845 -122.256582 136 32959ft 465kts
30-Sep-18 17:57 36.204868 -122.115245 137 32960ft 465kts
30-Sep-18 17:58 36.120844 -121.993448 137 32959ft 465kts
30-Sep-18 17:59 36.051058 -121.892629 137 32960ft 465kts
30-Sep-18 18:00 35.952995 -121.751480 137 32962ft 465kts
30-Sep-18 18:01 35.884188 -121.652802 137 32969ft 465kts
30-Sep-18 18:02 35.799930 -121.532367 137 32940ft 466kts
30-Sep-18 18:03 35.715468 -121.412060 137 32918ft 466kts
30-Sep-18 18:04 35.632692 -121.294544 137 32906ft 465kts
30-Sep-18 18:05 35.548570 -121.175529 137 32909ft 465kts
30-Sep-18 18:06 35.470296 -121.048374 123 32932ft 480kts
30-Sep-18 18:07 35.388440 -120.928867 146 32930ft 459kts
30-Sep-18 18:08 35.293445 -120.827643 145 32941ft 459kts
30-Sep-18 18:09 35.199940 -120.727087 145 32931ft 459kts
30-Sep-18 18:10 35.104714 -120.624962 145 32935ft 459kts
30-Sep-18 18:11 35.006586 -120.528884 153 32944ft 451kts
30-Sep-18 18:12 34.902525 -120.445690 153 32941ft 449kts
30-Sep-18 18:13 34.800582 -120.363419 152 32954ft 448kts
30-Sep-18 18:14 34.710230 -120.290689 153 32941ft 448kts
30-Sep-18 18:15 34.608191 -120.208926 153 32937ft 448kts
30-Sep-18 18:16 34.504749 -120.126328 153 32938ft 447kts
30-Sep-18 18:17 34.401382 -120.044034 153 32910ft 448kts
30-Sep-18 18:18 34.302052 -119.965040 153 32008ft 425kts
30-Sep-18 18:19 34.202662 -119.886433 153 30234ft 427kts
30-Sep-18 18:20 34.103540 -119.807497 148 28236ft 432kts
30-Sep-18 18:21 34.030501 -119.697180 126 26356ft 451kts
30-Sep-18 18:22 33.965624 -119.567637 126 24635ft 453kts
30-Sep-18 18:23 33.903189 -119.443082 126 23163ft 410kts
30-Sep-18 18:24 33.848573 -119.332437 126 21710ft 389kts
30-Sep-18 18:25 33.799491 -119.232850 126 19976ft 377kts
30-Sep-18 18:26 33.746991 -119.126658 125 18586ft 370kts
30-Sep-18 18:27 33.694900 -119.021708 125 16527ft 362kts
30-Sep-18 18:28 33.644931 -118.921248 125 14507ft 345kts
30-Sep-18 18:29 33.597497 -118.826159 124 12607ft 333kts
30-Sep-18 18:30 33.563663 -118.728162 104 11344ft 314kts
30-Sep-18 18:31 33.548219 -118.630707 104 10440ft 290kts
30-Sep-18 18:32 33.533816 -118.540986 103 9461ft 281kts
30-Sep-18 18:33 33.520428 -118.449841 94 8301ft 281kts
30-Sep-18 18:34 33.518719 -118.356914 93 7191ft 278kts
30-Sep-18 18:35 33.536746 -118.271539 67 6142ft 277kts
30-Sep-18 18:36 33.563352 -118.190752 70 5168ft 248kts
30-Sep-18 18:37 33.596105 -118.125720 57 4974ft 222kts
30-Sep-18 18:38 33.629216 -118.066882 58 4979ft 206kts
30-Sep-18 18:39 33.660405 -118.010943 58 4921ft 206kts
30-Sep-18 18:40 33.688840 -117.959979 57 3950ft 183kts
30-Sep-18 18:41 33.723403 -117.923324 32 3448ft 169kts
30-Sep-18 18:42 33.760067 -117.894382 32 3704ft 164kts
30-Sep-18 18:43 33.792728 -117.862520 42 3258ft 156kts
30-Sep-18 18:44 33.812804 -117.820728 100 2528ft 152kts
30-Sep-18 18:45 33.781150 -117.804405 201 2090ft 140kts
30-Sep-18 18:46 33.747878 -117.824321 206 1568ft 139kts
30-Sep-18 18:47 33.714692 -117.844020 209 835ft 140kts
30-Sep-18 18:48 33.682079 -117.864794 208 122ft 134kts
30-Sep-18 18:49 33.669515 -117.872011 148 64ft 7kts
30-Sep-18 18:50 33.669158 -117.871605 122 64ft 0kts
30-Sep-18 18:51 33.669895 -117.870128 41 64ft 11kts
30-Sep-18 18:52 33.673280 -117.867063 39 64ft 15kts
30-Sep-18 18:53 33.676264 -117.865082 43 64ft 3kts
30-Sep-18 18:54 33.676108 -117.864420 119 64ft 0kts
30-Sep-18 18:55 33.676103 -117.864408 119 64ft 0kts
30-Sep-18 18:56 33.676103 -117.864408 119 64ft 0kts

Navigation Log

Ident Type
Flight plan parsing failed, navigation log unavailable